Aviation Digital Data Service (ADDS)

Output produced by METARs form (2358 UTC 25 May 2017)
found at http://aviationweather.gov/adds/metars/
 
KDAG 252350Z AUTO 25025G33KT 10SM CLR 31/M03 A2961 RMK AO2 PK WND 23038/2327 SLP004 T03111033 10344 20311 56008
KDAG 252320Z 2600/2624 26024G34KT P6SM SKC 
     FM261200 26018G25KT P6SM SKC
       
KEDW 252258Z 23030G35KT 60SM FEW350 24/M01 A2969 RMK AO2A PK WND 23036/31 SLP035 T02441008
TAF COR KEDW 252343Z 2523/2624 24020G30KT 9999 SKC 520009 QNH2967INS 
     TEMPO 2523/2602 24030G40KT 560009 
     BECMG 2602/2603 23025G35KT 9999 SKC 530009 QNH2970INS 
     BECMG 2606/2607 24020G30KT 9999 FEW250 520009 QNH2974INS 
     BECMG 2619/2620 24025G35KT 9999 FEW250 530009 QNH2970INS TX24/2523Z TN12/2613Z LAST NO AMDS 2601 NEXT 3010
       
KVCV 252335Z AUTO 18019KT 10SM CLR 25/02 A2973 RMK AO2
KONT 252353Z 24015G22KT 10SM FEW045 21/09 A2982 RMK AO2 SLP092 T02060089 10222 20178 56012
KONT 252337Z 2600/2706 25013G18KT P6SM SCT040 
     FM260400 25010KT P6SM OVC025 
     FM260900 25006KT P6SM -DZ OVC020 
     FM261600 25006KT P6SM OVC035 
     FM262200 25010G17KT P6SM BKN040 
     FM270500 25006KT P6SM BKN030
       
KSNA 252353Z 24008KT 10SM FEW023 OVC038 18/10 A2986 RMK AO2 SLP113 T01830100 10194 20167 56005
KSNA 252337Z 2600/2624 22008KT P6SM SCT025 OVC035 
     FM260200 24007KT P6SM OVC025 
     FM260700 21005KT P6SM -DZ OVC025 
     FM261700 21005KT P6SM OVC035 
     FM262000 22008KT P6SM SCT040
       
KSAN 252351Z 25009KT 10SM FEW029 BKN036 BKN220 19/10 A2989 RMK AO2 SLP121 T01890100 10200 20172 56005
KSAN 252337Z 2600/2706 25007KT P6SM SCT025 BKN035 
     FM260300 21006KT P6SM OVC025 
     FM260700 21006KT P6SM -DZ OVC025 
     FM261600 22006KT P6SM SCT025 OVC035 
     FM262000 26008KT P6SM SCT040 
     FM270100 VRB04KT P6SM SCT020
       
KNID 252356Z 24014G22KT 10SM FEW280 33/M09 A2957 RMK AO2 SLP988 T03331094 10350 20322 56007
TAF KNID 2523/2623 23018G26KT 9999 FEW280 530009 530909 QNH2956INS 
     TEMPO 2523/2603 23022G33KT 
     BECMG 2602/2603 23012G20KT 9999 SKC 520009 520909 QNH2960INS 
     TEMPO 2603/2610 23018G28KT 
     BECMG 2612/2614 22010G16KT 9999 SKC 510009 520909 QNH2964INS WND 22018G28KT AFT 2622 T15/2613Z T31/2623Z LAST NO AMDS AFT 2605 NEXT 2615
       
KNXP 252356Z 23016KT 10SM FEW200 33/M14 A2966 RMK AO2 PK WND 21029/2324 SLP004 T03331144 10356 20322 56013 $
TAF KNXP 2521/2621 20015G25KT 9999 FEW200 QNH2963INS 
     TEMPO 2523/2605 20020G30KT 
     BECMG 2610/2612 31012KT 9999 FEW200 QNH2977INS T35/2521Z T16/2613Z
       
KPSP 252353Z 33010G23KT 10SM CLR 33/02 A2958 RMK AO2 SLP013 T03330017 10339 20311 56015
KPSP 252337Z 2600/2624 32020G30KT P6SM SKC 
     FM260800 32008KT P6SM SKC 
     FM261700 32013G20KT P6SM SKC
       
KLAX 252353Z 24011KT 10SM FEW028 SCT040 SCT140 18/10 A2986 RMK AO2 SLP109 T01830100 10189 20167 58009 $
KLAX 252345Z 2600/2706 25012KT P6SM SCT025 SCT040 
     FM260230 25009KT P6SM BKN025 
     FM260400 25007KT P6SM -DZ BKN025 OVC040 
     FM261500 23006KT P6SM SCT025 BKN040 
     FM262000 25010KT P6SM SCT040
       
KCNO 252353Z 25014KT 10SM SCT035 21/09 A2984 RMK AO2 SLP100 T02110094 10228 20189 56010
KSMO 252351Z 21011G14KT 10SM FEW025 18/10 A2986 RMK AO2 SLP110 T01780100 10189 20167 58009
KSMO 251733Z 2518/2618 20006KT P6SM OVC035 
     FM251900 23010KT P6SM SCT025 OVC040 
     FM260200 24007KT P6SM OVC025 
     FM260600 23006KT P6SM -DZ OVC035 
     FM261600 23006KT P6SM OVC040
       
KLGB 252353Z 21009KT 10SM SCT043 19/08 A2985 RMK AO2 SLP109 T01940078 10206 20172 56009
KLGB 252345Z 2600/2624 20008KT P6SM FEW025 SCT040 
     FM260600 17006KT P6SM -DZ BKN025 OVC040 
     FM261500 17006KT P6SM SCT025 BKN040 
     FM262000 19008KT P6SM SCT040
       
KVNY 252351Z 18008KT 10SM CLR 20/09 A2983 RMK AO2 SLP096 T02000089 10206 20161 56013
KVNY 251947Z 2520/2618 17009KT P6SM OVC035 
     FM260400 15006KT P6SM OVC020 
     FM260800 16006KT P6SM -DZ OVC030 
     FM261500 14006KT P6SM -DZ OVC035
       
KBUR 252353Z 17008KT 10SM SCT036 18/08 A2984 RMK AO2 SLP094 T01830083 10194 20161 56011
KBUR 252345Z 2600/2624 19009KT P6SM SCT035 
     FM260400 16006KT P6SM SCT020 BKN035 
     FM260800 15006KT P6SM -DZ BKN020 OVC035 
     FM261400 VRB03KT P6SM SCT020 BKN035 
     FM262000 19009KT P6SM SCT035
       
KBFL 252354Z 31012G19KT 10SM CLR 27/09 A2971 RMK AO2 SLP056 T02670089 10272 20233 56012
KBFL 252320Z 2600/2624 32012G18KT P6SM SKC 
     FM260600 34006KT P6SM SKC
       
KPMD 252353Z AUTO 23022G27KT 10SM CLR 22/03 A2974 RMK AO2 PK WND 22031/2254 SLP049 T02220033 10239 20211 56009
KPMD 252109Z 2521/2618 23015G22KT P6SM SKC 
     FM252300 23025G35KT 6SM BLDU SKC 
     FM260300 22015G25KT P6SM SKC 
     FM260600 23015KT P6SM SKC 
     FM261000 21015KT P6SM BKN020
       
KOXR 252351Z 20008KT 10SM CLR 18/11 A2986 RMK AO2 SLP109 T01780106 10189 20161 56010
KOXR 251733Z 2518/2618 VRB03KT P6SM SCT025 OVC035 
     FM251900 24010KT P6SM OVC035 
     FM260200 25008KT P6SM OVC025 
     FM260900 VRB03KT P6SM -DZ OVC035 
     FM261600 VRB03KT P6SM OVC040
       
KWJF 252256Z 23027G35KT 10SM CLR 22/04 A2974 RMK AO2 PK WND 22035/2252 SLP059 T02170044
KWJF 251733Z 2518/2618 23025G35KT P6SM SKC 
     FM252000 23030G40KT 6SM BLDU SKC 
     FM260300 23020G30KT P6SM SKC 
     FM260800 24018G25KT P6SM SKC 
     FM261100 24018G25KT P6SM BKN020
       
KCMA 252355Z 20008KT 10SM OVC042 19/10 A2985 RMK AO2 SLP115 T01890100 10200 20172 58010
KCMA 251733Z 2518/2618 VRB03KT P6SM OVC035 
     FM252000 24008KT P6SM OVC035 
     FM260200 24008KT P6SM OVC025 
     FM260900 VRB03KT P6SM -DZ OVC035 
     FM261600 VRB03KT P6SM OVC040
       
KFAT 252353Z 00000KT 10SM FEW250 26/07 A2971 RMK AO2 SLP058 MTNS OBSC HZ DSNT N-E-SE T02610072 10272 20211 58012
KFAT 252320Z 2600/2624 28008KT P6SM SKC 
     FM261200 VRB04KT P6SM SKC
       
KEED 252256Z AUTO 20015G25KT 10SM CLR 41/M17 A2951 RMK AO2 PK WND 17027/2200 SLP955 T04061172
KEED 252320Z 2600/2624 22019G27KT P6SM SKC 
     FM260800 23014KT P6SM SKC 
     FM261600 17015G22KT P6SM SKC
       
KLSV 252258Z 22026G37KT 10SM CLR 37/M07 A2946 RMK AO2A PK WND 19037/45 SLP948 T03651069
TAF KLSV 252301Z 2523/2705 24015G25KT 9999 SKC QNH2949INS 
     TEMPO 2523/2605 22025G35KT 530009 
     BECMG 2606/2607 24012G20KT 9999 SKC QNH2962INS 
     BECMG 2610/2611 25015G25KT 9999 SKC QNH2968INS 
     BECMG 2615/2616 22012KT 9999 SKC QNH2977INS 
     BECMG 2703/2704 23015G25KT 9999 SKC QNH2975INS TX35/2523Z TN15/2611Z
       
KLAS 252256Z 26019G30KT 10SM FEW140 SCT250 37/M12 A2951 RMK AO2 PK WND 25033/2158 SLP960 T03721117
KLAS 252320Z 2600/2624 23022G32KT P6SM SCT250 
     FM260400 22013G21KT P6SM FEW250 
     FM261400 19012KT P6SM FEW250 
     FM262100 22018G25KT P6SM FEW250
       
KHII 252335Z AUTO 18016G22KT 10SM CLR 38/M11 A2951 RMK AO2
KIFP 252335Z 19017G27KT 10SM CLR 39/M10 A2946 RMK AO2
KIFP 252320Z 2600/2624 19020G28KT P6SM SKC 
     FM260800 17014G20KT P6SM SKC 
     FM261800 18017G24KT P6SM SKC